sensor_id;sensor_type;location;lat;lon;timestamp;P1;durP1;ratioP1;P2;durP2;ratioP2
52029;SDS011;38043;53.224;6.580;2022-09-09T00:02:19;17.83;;;9.43;;
52029;SDS011;38043;53.224;6.580;2022-09-09T00:04:50;16.50;;;10.55;;
52029;SDS011;38043;53.224;6.580;2022-09-09T00:07:20;17.67;;;10.65;;
52029;SDS011;38043;53.224;6.580;2022-09-09T00:15:22;26.70;;;11.85;;
52029;SDS011;38043;53.224;6.580;2022-09-09T00:17:59;20.50;;;11.60;;
52029;SDS011;38043;53.224;6.580;2022-09-09T00:20:44;17.27;;;11.52;;
52029;SDS011;38043;53.224;6.580;2022-09-09T00:28:52;27.15;;;11.98;;
52029;SDS011;38043;53.224;6.580;2022-09-09T00:31:21;20.55;;;11.48;;
52029;SDS011;38043;53.224;6.580;2022-09-09T00:33:51;16.27;;;11.52;;
52029;SDS011;38043;53.224;6.580;2022-09-09T00:36:20;19.13;;;12.15;;
52029;SDS011;38043;53.224;6.580;2022-09-09T00:38:57;14.95;;;11.23;;
52029;SDS011;38043;53.224;6.580;2022-09-09T00:44:36;14.77;;;10.18;;
52029;SDS011;38043;53.224;6.580;2022-09-09T00:47:14;18.02;;;11.38;;
52029;SDS011;38043;53.224;6.580;2022-09-09T00:55:45;14.88;;;10.38;;
52029;SDS011;38043;53.224;6.580;2022-09-09T00:58:30;30.45;;;11.35;;
52029;SDS011;38043;53.224;6.580;2022-09-09T01:00:58;18.95;;;11.63;;
52029;SDS011;38043;53.224;6.580;2022-09-09T01:03:51;14.65;;;8.95;;
52029;SDS011;38043;53.224;6.580;2022-09-09T01:08:57;11.13;;;8.95;;
52029;SDS011;38043;53.224;6.580;2022-09-09T01:17:03;18.23;;;8.73;;
52029;SDS011;38043;53.224;6.580;2022-09-09T01:20:10;18.00;;;8.68;;
52029;SDS011;38043;53.224;6.580;2022-09-09T01:25:30;19.33;;;9.02;;
52029;SDS011;38043;53.224;6.580;2022-09-09T01:28:09;22.42;;;9.50;;
52029;SDS011;38043;53.224;6.580;2022-09-09T01:30:38;13.38;;;8.07;;
52029;SDS011;38043;53.224;6.580;2022-09-09T01:33:07;14.95;;;8.65;;
52029;SDS011;38043;53.224;6.580;2022-09-09T01:35:42;11.43;;;8.07;;
52029;SDS011;38043;53.224;6.580;2022-09-09T01:38:15;14.45;;;8.80;;
52029;SDS011;38043;53.224;6.580;2022-09-09T01:40:43;18.42;;;8.88;;
52029;SDS011;38043;53.224;6.580;2022-09-09T01:43:09;12.98;;;8.63;;
52029;SDS011;38043;53.224;6.580;2022-09-09T01:45:35;16.02;;;9.45;;
52029;SDS011;38043;53.224;6.580;2022-09-09T01:48:02;11.48;;;8.00;;
52029;SDS011;38043;53.224;6.580;2022-09-09T01:50:28;15.52;;;8.95;;
52029;SDS011;38043;53.224;6.580;2022-09-09T01:52:54;14.45;;;8.43;;
52029;SDS011;38043;53.224;6.580;2022-09-09T01:55:27;18.75;;;9.13;;
52029;SDS011;38043;53.224;6.580;2022-09-09T01:58:02;12.38;;;8.27;;
52029;SDS011;38043;53.224;6.580;2022-09-09T02:00:56;14.25;;;8.50;;
52029;SDS011;38043;53.224;6.580;2022-09-09T02:03:27;16.80;;;9.20;;
52029;SDS011;38043;53.224;6.580;2022-09-09T02:08:26;17.33;;;9.18;;
52029;SDS011;38043;53.224;6.580;2022-09-09T02:11:05;16.60;;;9.00;;
52029;SDS011;38043;53.224;6.580;2022-09-09T02:13:35;16.38;;;9.38;;
52029;SDS011;38043;53.224;6.580;2022-09-09T02:18:48;19.27;;;10.95;;
52029;SDS011;38043;53.224;6.580;2022-09-09T02:21:20;18.65;;;10.52;;
52029;SDS011;38043;53.224;6.580;2022-09-09T02:23:48;18.00;;;10.43;;
52029;SDS011;38043;53.224;6.580;2022-09-09T02:26:17;17.40;;;11.43;;
52029;SDS011;38043;53.224;6.580;2022-09-09T02:28:50;18.95;;;11.65;;
52029;SDS011;38043;53.224;6.580;2022-09-09T02:31:18;18.75;;;12.13;;
52029;SDS011;38043;53.224;6.580;2022-09-09T02:33:50;19.05;;;12.25;;
52029;SDS011;38043;53.224;6.580;2022-09-09T02:36:20;15.27;;;11.35;;
52029;SDS011;38043;53.224;6.580;2022-09-09T02:38:48;13.93;;;11.10;;
52029;SDS011;38043;53.224;6.580;2022-09-09T02:41:20;22.83;;;11.65;;
52029;SDS011;38043;53.224;6.580;2022-09-09T02:43:51;22.05;;;11.80;;
52029;SDS011;38043;53.224;6.580;2022-09-09T02:49:09;21.88;;;12.60;;
52029;SDS011;38043;53.224;6.580;2022-09-09T02:54:33;20.40;;;12.07;;
52029;SDS011;38043;53.224;6.580;2022-09-09T02:57:23;23.08;;;12.18;;
52029;SDS011;38043;53.224;6.580;2022-09-09T02:59:53;16.48;;;11.48;;
52029;SDS011;38043;53.224;6.580;2022-09-09T03:02:22;21.55;;;11.32;;
52029;SDS011;38043;53.224;6.580;2022-09-09T03:04:47;17.75;;;11.43;;
52029;SDS011;38043;53.224;6.580;2022-09-09T03:07:16;15.77;;;11.07;;
52029;SDS011;38043;53.224;6.580;2022-09-09T03:09:43;20.27;;;10.85;;
52029;SDS011;38043;53.224;6.580;2022-09-09T03:12:09;28.73;;;11.68;;
52029;SDS011;38043;53.224;6.580;2022-09-09T03:14:36;18.90;;;10.60;;
52029;SDS011;38043;53.224;6.580;2022-09-09T03:17:03;19.80;;;10.75;;
52029;SDS011;38043;53.224;6.580;2022-09-09T03:19:29;18.00;;;10.15;;
52029;SDS011;38043;53.224;6.580;2022-09-09T03:21:55;14.55;;;9.90;;
52029;SDS011;38043;53.224;6.580;2022-09-09T03:24:22;15.90;;;10.27;;
52029;SDS011;38043;53.224;6.580;2022-09-09T03:26:48;16.02;;;9.25;;
52029;SDS011;38043;53.224;6.580;2022-09-09T03:29:13;18.25;;;9.40;;
52029;SDS011;38043;53.224;6.580;2022-09-09T03:31:40;12.38;;;8.55;;
52029;SDS011;38043;53.224;6.580;2022-09-09T03:34:05;17.70;;;8.88;;
52029;SDS011;38043;53.224;6.580;2022-09-09T03:36:31;15.68;;;8.18;;
52029;SDS011;38043;53.224;6.580;2022-09-09T03:38:57;13.98;;;8.27;;
52029;SDS011;38043;53.224;6.580;2022-09-09T03:41:24;11.77;;;8.57;;
52029;SDS011;38043;53.224;6.580;2022-09-09T03:43:51;17.10;;;9.00;;
52029;SDS011;38043;53.224;6.580;2022-09-09T03:46:21;13.25;;;7.65;;
52029;SDS011;38043;53.224;6.580;2022-09-09T03:48:47;13.88;;;8.10;;
52029;SDS011;38043;53.224;6.580;2022-09-09T03:51:13;14.38;;;7.45;;
52029;SDS011;38043;53.224;6.580;2022-09-09T03:53:40;11.85;;;6.60;;
52029;SDS011;38043;53.224;6.580;2022-09-09T03:56:06;12.65;;;6.95;;
52029;SDS011;38043;53.224;6.580;2022-09-09T03:58:35;16.65;;;7.45;;
52029;SDS011;38043;53.224;6.580;2022-09-09T04:01:06;13.35;;;5.90;;
52029;SDS011;38043;53.224;6.580;2022-09-09T04:03:38;15.10;;;6.00;;
52029;SDS011;38043;53.224;6.580;2022-09-09T04:06:05;13.18;;;5.50;;
52029;SDS011;38043;53.224;6.580;2022-09-09T04:08:32;11.45;;;5.15;;
52029;SDS011;38043;53.224;6.580;2022-09-09T04:10:58;10.00;;;5.70;;
52029;SDS011;38043;53.224;6.580;2022-09-09T04:13:27;12.85;;;4.60;;
52029;SDS011;38043;53.224;6.580;2022-09-09T04:15:54;11.68;;;4.60;;
52029;SDS011;38043;53.224;6.580;2022-09-09T04:18:21;12.60;;;4.70;;
52029;SDS011;38043;53.224;6.580;2022-09-09T04:20:47;9.52;;;4.13;;
52029;SDS011;38043;53.224;6.580;2022-09-09T04:23:14;7.38;;;3.75;;
52029;SDS011;38043;53.224;6.580;2022-09-09T04:28:34;8.18;;;3.83;;
52029;SDS011;38043;53.224;6.580;2022-09-09T04:31:16;11.65;;;4.10;;
52029;SDS011;38043;53.224;6.580;2022-09-09T04:33:45;9.95;;;4.55;;
52029;SDS011;38043;53.224;6.580;2022-09-09T04:36:11;9.25;;;4.15;;
52029;SDS011;38043;53.224;6.580;2022-09-09T04:38:37;8.23;;;4.00;;
52029;SDS011;38043;53.224;6.580;2022-09-09T04:41:03;7.65;;;4.07;;
52029;SDS011;38043;53.224;6.580;2022-09-09T04:43:29;11.88;;;4.35;;
52029;SDS011;38043;53.224;6.580;2022-09-09T04:45:55;12.18;;;4.40;;
52029;SDS011;38043;53.224;6.580;2022-09-09T04:48:21;12.43;;;4.10;;
52029;SDS011;38043;53.224;6.580;2022-09-09T04:53:23;9.45;;;4.55;;
52029;SDS011;38043;53.224;6.580;2022-09-09T04:55:51;11.88;;;4.35;;
52029;SDS011;38043;53.224;6.580;2022-09-09T04:58:18;13.82;;;5.18;;
52029;SDS011;38043;53.224;6.580;2022-09-09T05:00:43;11.07;;;4.90;;
52029;SDS011;38043;53.224;6.580;2022-09-09T05:03:09;9.57;;;4.47;;
52029;SDS011;38043;53.224;6.580;2022-09-09T05:05:35;7.93;;;4.63;;
52029;SDS011;38043;53.224;6.580;2022-09-09T05:08:04;10.73;;;5.43;;
52029;SDS011;38043;53.224;6.580;2022-09-09T05:10:32;10.70;;;5.32;;
52029;SDS011;38043;53.224;6.580;2022-09-09T05:12:58;15.27;;;6.05;;
52029;SDS011;38043;53.224;6.580;2022-09-09T05:15:24;11.77;;;6.47;;
52029;SDS011;38043;53.224;6.580;2022-09-09T05:17:50;13.90;;;6.60;;
52029;SDS011;38043;53.224;6.580;2022-09-09T05:20:18;15.00;;;7.20;;
52029;SDS011;38043;53.224;6.580;2022-09-09T05:22:43;14.50;;;6.90;;
52029;SDS011;38043;53.224;6.580;2022-09-09T05:25:09;13.60;;;7.30;;
52029;SDS011;38043;53.224;6.580;2022-09-09T05:27:35;13.38;;;7.13;;
52029;SDS011;38043;53.224;6.580;2022-09-09T05:30:00;18.65;;;7.63;;
52029;SDS011;38043;53.224;6.580;2022-09-09T05:32:26;20.48;;;7.40;;
52029;SDS011;38043;53.224;6.580;2022-09-09T05:34:52;15.40;;;8.27;;
52029;SDS011;38043;53.224;6.580;2022-09-09T05:37:18;11.63;;;7.88;;
52029;SDS011;38043;53.224;6.580;2022-09-09T05:39:44;16.67;;;8.20;;
52029;SDS011;38043;53.224;6.580;2022-09-09T05:42:10;12.75;;;8.82;;
52029;SDS011;38043;53.224;6.580;2022-09-09T05:44:35;17.63;;;8.43;;
52029;SDS011;38043;53.224;6.580;2022-09-09T05:47:02;15.63;;;9.13;;
52029;SDS011;38043;53.224;6.580;2022-09-09T05:49:28;14.73;;;8.65;;
52029;SDS011;38043;53.224;6.580;2022-09-09T05:51:54;13.98;;;8.60;;
52029;SDS011;38043;53.224;6.580;2022-09-09T05:54:19;12.48;;;8.82;;
52029;SDS011;38043;53.224;6.580;2022-09-09T05:56:45;15.90;;;9.35;;
52029;SDS011;38043;53.224;6.580;2022-09-09T05:59:11;18.35;;;10.20;;
52029;SDS011;38043;53.224;6.580;2022-09-09T06:01:37;15.98;;;10.45;;
52029;SDS011;38043;53.224;6.580;2022-09-09T06:05:19;12.80;;;9.27;;
52029;SDS011;38043;53.224;6.580;2022-09-09T06:07:45;17.02;;;10.57;;
52029;SDS011;38043;53.224;6.580;2022-09-09T06:10:11;14.35;;;9.93;;
52029;SDS011;38043;53.224;6.580;2022-09-09T06:12:40;25.45;;;9.45;;
52029;SDS011;38043;53.224;6.580;2022-09-09T06:15:05;18.23;;;10.63;;
52029;SDS011;38043;53.224;6.580;2022-09-09T06:17:32;17.25;;;10.20;;
52029;SDS011;38043;53.224;6.580;2022-09-09T06:19:57;14.15;;;9.60;;
52029;SDS011;38043;53.224;6.580;2022-09-09T06:22:24;13.20;;;9.40;;
52029;SDS011;38043;53.224;6.580;2022-09-09T06:24:49;19.88;;;10.38;;
52029;SDS011;38043;53.224;6.580;2022-09-09T06:27:16;22.98;;;9.85;;
52029;SDS011;38043;53.224;6.580;2022-09-09T06:29:41;13.95;;;9.65;;
52029;SDS011;38043;53.224;6.580;2022-09-09T06:32:07;16.00;;;9.30;;
52029;SDS011;38043;53.224;6.580;2022-09-09T06:34:33;14.23;;;9.20;;
52029;SDS011;38043;53.224;6.580;2022-09-09T06:37:00;12.02;;;9.52;;
52029;SDS011;38043;53.224;6.580;2022-09-09T06:39:26;16.15;;;9.10;;
52029;SDS011;38043;53.224;6.580;2022-09-09T06:41:51;13.45;;;9.07;;
52029;SDS011;38043;53.224;6.580;2022-09-09T06:44:18;12.10;;;8.70;;
52029;SDS011;38043;53.224;6.580;2022-09-09T06:46:45;13.75;;;8.93;;
52029;SDS011;38043;53.224;6.580;2022-09-09T06:49:12;15.05;;;8.95;;
52029;SDS011;38043;53.224;6.580;2022-09-09T06:51:38;11.80;;;8.23;;
52029;SDS011;38043;53.224;6.580;2022-09-09T06:54:11;271.10;;;29.10;;
52029;SDS011;38043;53.224;6.580;2022-09-09T06:56:40;172.25;;;20.88;;
52029;SDS011;38043;53.224;6.580;2022-09-09T06:59:08;25.95;;;8.65;;
52029;SDS011;38043;53.224;6.580;2022-09-09T07:01:35;14.20;;;8.07;;
52029;SDS011;38043;53.224;6.580;2022-09-09T07:04:02;15.73;;;8.88;;
52029;SDS011;38043;53.224;6.580;2022-09-09T07:06:30;15.83;;;7.97;;
52029;SDS011;38043;53.224;6.580;2022-09-09T07:09:06;13.93;;;8.07;;
52029;SDS011;38043;53.224;6.580;2022-09-09T07:11:38;14.48;;;7.95;;
52029;SDS011;38043;53.224;6.580;2022-09-09T07:14:07;11.52;;;7.68;;
52029;SDS011;38043;53.224;6.580;2022-09-09T07:16:32;16.80;;;8.63;;
52029;SDS011;38043;53.224;6.580;2022-09-09T07:19:02;9.98;;;7.22;;
52029;SDS011;38043;53.224;6.580;2022-09-09T07:21:28;11.07;;;8.10;;
52029;SDS011;38043;53.224;6.580;2022-09-09T07:23:56;14.68;;;7.85;;
52029;SDS011;38043;53.224;6.580;2022-09-09T07:26:23;12.48;;;7.55;;
52029;SDS011;38043;53.224;6.580;2022-09-09T07:28:50;12.70;;;8.40;;
52029;SDS011;38043;53.224;6.580;2022-09-09T07:31:17;12.52;;;7.95;;
52029;SDS011;38043;53.224;6.580;2022-09-09T07:33:48;11.30;;;7.68;;
52029;SDS011;38043;53.224;6.580;2022-09-09T07:36:15;10.73;;;7.85;;
52029;SDS011;38043;53.224;6.580;2022-09-09T07:38:44;11.75;;;7.57;;
52029;SDS011;38043;53.224;6.580;2022-09-09T07:41:12;12.07;;;8.23;;
52029;SDS011;38043;53.224;6.580;2022-09-09T07:43:43;16.83;;;9.13;;
52029;SDS011;38043;53.224;6.580;2022-09-09T07:46:11;14.20;;;8.85;;
52029;SDS011;38043;53.224;6.580;2022-09-09T07:48:38;12.48;;;7.55;;
52029;SDS011;38043;53.224;6.580;2022-09-09T07:51:09;12.07;;;7.45;;
52029;SDS011;38043;53.224;6.580;2022-09-09T07:53:42;8.30;;;5.93;;
52029;SDS011;38043;53.224;6.580;2022-09-09T07:56:09;13.52;;;7.10;;
52029;SDS011;38043;53.224;6.580;2022-09-09T07:58:37;8.45;;;6.60;;
52029;SDS011;38043;53.224;6.580;2022-09-09T08:01:07;10.55;;;7.65;;
52029;SDS011;38043;53.224;6.580;2022-09-09T08:03:34;14.02;;;6.68;;
52029;SDS011;38043;53.224;6.580;2022-09-09T08:06:01;11.07;;;7.57;;
52029;SDS011;38043;53.224;6.580;2022-09-09T08:08:28;13.73;;;7.13;;
52029;SDS011;38043;53.224;6.580;2022-09-09T08:11:00;12.50;;;6.78;;
52029;SDS011;38043;53.224;6.580;2022-09-09T08:13:30;8.45;;;5.75;;
52029;SDS011;38043;53.224;6.580;2022-09-09T08:16:03;11.43;;;6.38;;
52029;SDS011;38043;53.224;6.580;2022-09-09T08:18:30;10.75;;;6.40;;
52029;SDS011;38043;53.224;6.580;2022-09-09T08:20:56;11.30;;;6.70;;
52029;SDS011;38043;53.224;6.580;2022-09-09T08:23:21;10.38;;;6.18;;
52029;SDS011;38043;53.224;6.580;2022-09-09T08:25:47;10.98;;;6.03;;
52029;SDS011;38043;53.224;6.580;2022-09-09T08:28:13;7.95;;;5.15;;
52029;SDS011;38043;53.224;6.580;2022-09-09T08:30:39;8.73;;;5.72;;
52029;SDS011;38043;53.224;6.580;2022-09-09T08:33:05;7.10;;;5.40;;
52029;SDS011;38043;53.224;6.580;2022-09-09T08:35:30;7.93;;;5.32;;
52029;SDS011;38043;53.224;6.580;2022-09-09T08:37:57;12.07;;;6.28;;
52029;SDS011;38043;53.224;6.580;2022-09-09T08:40:26;9.88;;;5.55;;
52029;SDS011;38043;53.224;6.580;2022-09-09T08:42:55;7.32;;;4.80;;
52029;SDS011;38043;53.224;6.580;2022-09-09T08:45:34;8.15;;;4.45;;
52029;SDS011;38043;53.224;6.580;2022-09-09T08:51:17;12.02;;;4.45;;
52029;SDS011;38043;53.224;6.580;2022-09-09T08:53:44;8.68;;;4.40;;
52029;SDS011;38043;53.224;6.580;2022-09-09T08:56:15;10.52;;;4.38;;
52029;SDS011;38043;53.224;6.580;2022-09-09T08:58:45;13.35;;;4.25;;
52029;SDS011;38043;53.224;6.580;2022-09-09T09:01:20;101.07;;;12.40;;
52029;SDS011;38043;53.224;6.580;2022-09-09T09:09:46;41.70;;;6.45;;
52029;SDS011;38043;53.224;6.580;2022-09-09T09:12:21;28.33;;;5.82;;
52029;SDS011;38043;53.224;6.580;2022-09-09T09:14:50;14.57;;;4.63;;
52029;SDS011;38043;53.224;6.580;2022-09-09T09:17:19;12.40;;;4.45;;
52029;SDS011;38043;53.224;6.580;2022-09-09T09:19:47;14.50;;;4.47;;
52029;SDS011;38043;53.224;6.580;2022-09-09T09:27:46;95.82;;;10.20;;
52029;SDS011;38043;53.224;6.580;2022-09-09T09:36:05;9.07;;;4.20;;
52029;SDS011;38043;53.224;6.580;2022-09-09T09:40:59;8.32;;;4.00;;
52029;SDS011;38043;53.224;6.580;2022-09-09T09:43:33;10.30;;;3.85;;
52029;SDS011;38043;53.224;6.580;2022-09-09T09:49:31;13.82;;;4.13;;
52029;SDS011;38043;53.224;6.580;2022-09-09T09:52:04;13.75;;;4.10;;
52029;SDS011;38043;53.224;6.580;2022-09-09T09:54:32;10.27;;;3.50;;
52029;SDS011;38043;53.224;6.580;2022-09-09T09:57:11;8.05;;;3.33;;
52029;SDS011;38043;53.224;6.580;2022-09-09T09:59:39;14.10;;;3.57;;
52029;SDS011;38043;53.224;6.580;2022-09-09T10:02:31;14.52;;;3.40;;
52029;SDS011;38043;53.224;6.580;2022-09-09T10:07:27;10.18;;;3.35;;
52029;SDS011;38043;53.224;6.580;2022-09-09T10:09:54;11.38;;;3.28;;
52029;SDS011;38043;53.224;6.580;2022-09-09T10:32:06;12.05;;;3.15;;
52029;SDS011;38043;53.224;6.580;2022-09-09T10:37:30;7.30;;;2.95;;
52029;SDS011;38043;53.224;6.580;2022-09-09T10:43:07;13.00;;;2.88;;
52029;SDS011;38043;53.224;6.580;2022-09-09T10:48:31;22.27;;;3.30;;
52029;SDS011;38043;53.224;6.580;2022-09-09T10:56:44;13.52;;;2.85;;
52029;SDS011;38043;53.224;6.580;2022-09-09T10:59:20;17.33;;;2.97;;
52029;SDS011;38043;53.224;6.580;2022-09-09T11:04:26;9.10;;;2.92;;
52029;SDS011;38043;53.224;6.580;2022-09-09T11:07:05;6.50;;;2.13;;
52029;SDS011;38043;53.224;6.580;2022-09-09T11:09:36;9.70;;;2.70;;
52029;SDS011;38043;53.224;6.580;2022-09-09T11:12:06;11.93;;;2.40;;
52029;SDS011;38043;53.224;6.580;2022-09-09T11:14:42;8.85;;;2.90;;
52029;SDS011;38043;53.224;6.580;2022-09-09T11:17:20;9.65;;;2.33;;
52029;SDS011;38043;53.224;6.580;2022-09-09T11:19:49;6.65;;;2.05;;
52029;SDS011;38043;53.224;6.580;2022-09-09T11:22:35;7.03;;;2.10;;
52029;SDS011;38043;53.224;6.580;2022-09-09T11:33:34;11.45;;;2.40;;
52029;SDS011;38043;53.224;6.580;2022-09-09T11:36:30;11.80;;;1.77;;
52029;SDS011;38043;53.224;6.580;2022-09-09T11:42:05;8.52;;;2.13;;
52029;SDS011;38043;53.224;6.580;2022-09-09T11:44:51;9.23;;;2.40;;
52029;SDS011;38043;53.224;6.580;2022-09-09T11:50:06;6.97;;;1.80;;
52029;SDS011;38043;53.224;6.580;2022-09-09T11:53:03;6.60;;;1.85;;
52029;SDS011;38043;53.224;6.580;2022-09-09T11:55:30;5.85;;;1.80;;
52029;SDS011;38043;53.224;6.580;2022-09-09T11:58:03;7.68;;;2.53;;
52029;SDS011;38043;53.224;6.580;2022-09-09T12:01:03;6.53;;;1.90;;
52029;SDS011;38043;53.224;6.580;2022-09-09T12:03:36;9.10;;;2.90;;
52029;SDS011;38043;53.224;6.580;2022-09-09T12:08:51;9.20;;;2.00;;
52029;SDS011;38043;53.224;6.580;2022-09-09T12:11:29;6.97;;;1.50;;
52029;SDS011;38043;53.224;6.580;2022-09-09T12:13:59;21.83;;;4.00;;
52029;SDS011;38043;53.224;6.580;2022-09-09T12:16:29;45.53;;;6.00;;
52029;SDS011;38043;53.224;6.580;2022-09-09T12:19:05;31.48;;;5.03;;
52029;SDS011;38043;53.224;6.580;2022-09-09T12:24:58;8.48;;;2.42;;
52029;SDS011;38043;53.224;6.580;2022-09-09T12:30:40;12.18;;;2.03;;
52029;SDS011;38043;53.224;6.580;2022-09-09T12:33:10;14.05;;;1.92;;
52029;SDS011;38043;53.224;6.580;2022-09-09T12:35:38;11.80;;;2.55;;
52029;SDS011;38043;53.224;6.580;2022-09-09T12:38:05;22.25;;;2.97;;
52029;SDS011;38043;53.224;6.580;2022-09-09T12:40:36;7.93;;;2.00;;
52029;SDS011;38043;53.224;6.580;2022-09-09T12:43:14;10.65;;;2.33;;
52029;SDS011;38043;53.224;6.580;2022-09-09T12:45:47;5.80;;;2.08;;
52029;SDS011;38043;53.224;6.580;2022-09-09T12:48:16;5.63;;;1.83;;
52029;SDS011;38043;53.224;6.580;2022-09-09T12:50:45;5.65;;;1.90;;
52029;SDS011;38043;53.224;6.580;2022-09-09T13:01:02;7.70;;;1.92;;
52029;SDS011;38043;53.224;6.580;2022-09-09T13:03:30;6.53;;;1.95;;
52029;SDS011;38043;53.224;6.580;2022-09-09T13:05:57;8.18;;;1.90;;
52029;SDS011;38043;53.224;6.580;2022-09-09T13:08:36;5.72;;;1.88;;
52029;SDS011;38043;53.224;6.580;2022-09-09T13:11:03;9.70;;;1.95;;
52029;SDS011;38043;53.224;6.580;2022-09-09T13:13:36;9.43;;;2.45;;
52029;SDS011;38043;53.224;6.580;2022-09-09T13:16:04;8.45;;;2.00;;
52029;SDS011;38043;53.224;6.580;2022-09-09T13:18:36;7.63;;;1.98;;
52029;SDS011;38043;53.224;6.580;2022-09-09T13:21:05;8.40;;;2.50;;
52029;SDS011;38043;53.224;6.580;2022-09-09T13:23:35;6.38;;;1.55;;
52029;SDS011;38043;53.224;6.580;2022-09-09T13:26:03;6.32;;;1.88;;
52029;SDS011;38043;53.224;6.580;2022-09-09T13:28:33;7.18;;;2.20;;
52029;SDS011;38043;53.224;6.580;2022-09-09T13:31:00;8.05;;;2.08;;
52029;SDS011;38043;53.224;6.580;2022-09-09T13:33:32;10.18;;;1.98;;
52029;SDS011;38043;53.224;6.580;2022-09-09T13:36:04;7.80;;;2.05;;
52029;SDS011;38043;53.224;6.580;2022-09-09T13:38:52;12.82;;;1.90;;
52029;SDS011;38043;53.224;6.580;2022-09-09T13:41:20;9.32;;;2.00;;
52029;SDS011;38043;53.224;6.580;2022-09-09T13:43:48;11.45;;;2.20;;
52029;SDS011;38043;53.224;6.580;2022-09-09T13:46:48;10.93;;;2.08;;
52029;SDS011;38043;53.224;6.580;2022-09-09T13:51:38;10.23;;;2.38;;
52029;SDS011;38043;53.224;6.580;2022-09-09T13:54:08;5.93;;;2.00;;
52029;SDS011;38043;53.224;6.580;2022-09-09T13:56:36;7.57;;;1.75;;
52029;SDS011;38043;53.224;6.580;2022-09-09T13:59:04;8.55;;;2.10;;
52029;SDS011;38043;53.224;6.580;2022-09-09T14:01:31;5.88;;;1.80;;
52029;SDS011;38043;53.224;6.580;2022-09-09T14:03:59;6.82;;;1.75;;
52029;SDS011;38043;53.224;6.580;2022-09-09T14:06:25;5.70;;;1.52;;
52029;SDS011;38043;53.224;6.580;2022-09-09T14:08:52;6.87;;;1.80;;
52029;SDS011;38043;53.224;6.580;2022-09-09T14:11:19;4.65;;;1.50;;
52029;SDS011;38043;53.224;6.580;2022-09-09T14:13:46;6.80;;;1.60;;
52029;SDS011;38043;53.224;6.580;2022-09-09T14:16:15;7.35;;;2.25;;
52029;SDS011;38043;53.224;6.580;2022-09-09T14:18:44;5.30;;;1.55;;
52029;SDS011;38043;53.224;6.580;2022-09-09T14:21:10;6.80;;;1.40;;
52029;SDS011;38043;53.224;6.580;2022-09-09T14:23:37;3.13;;;1.23;;
52029;SDS011;38043;53.224;6.580;2022-09-09T14:26:04;5.28;;;1.60;;
52029;SDS011;38043;53.224;6.580;2022-09-09T14:28:31;13.65;;;1.75;;
52029;SDS011;38043;53.224;6.580;2022-09-09T14:30:59;5.10;;;1.70;;
52029;SDS011;38043;53.224;6.580;2022-09-09T14:33:25;3.33;;;1.40;;
52029;SDS011;38043;53.224;6.580;2022-09-09T14:35:59;5.22;;;1.35;;
52029;SDS011;38043;53.224;6.580;2022-09-09T14:38:28;6.07;;;1.30;;
52029;SDS011;38043;53.224;6.580;2022-09-09T14:40:55;8.15;;;1.80;;
52029;SDS011;38043;53.224;6.580;2022-09-09T14:43:21;4.47;;;1.23;;
52029;SDS011;38043;53.224;6.580;2022-09-09T14:45:47;4.65;;;1.42;;
52029;SDS011;38043;53.224;6.580;2022-09-09T14:48:13;7.32;;;1.83;;
52029;SDS011;38043;53.224;6.580;2022-09-09T14:50:40;1.43;;;0.83;;
52029;SDS011;38043;53.224;6.580;2022-09-09T14:53:06;2.13;;;1.10;;
52029;SDS011;38043;53.224;6.580;2022-09-09T14:55:33;3.72;;;0.90;;
52029;SDS011;38043;53.224;6.580;2022-09-09T14:57:59;3.53;;;0.82;;
52029;SDS011;38043;53.224;6.580;2022-09-09T15:00:25;4.32;;;1.13;;
52029;SDS011;38043;53.224;6.580;2022-09-09T15:02:52;1.73;;;1.00;;
52029;SDS011;38043;53.224;6.580;2022-09-09T15:05:18;5.63;;;1.40;;
52029;SDS011;38043;53.224;6.580;2022-09-09T15:07:44;4.35;;;1.50;;
52029;SDS011;38043;53.224;6.580;2022-09-09T15:10:10;3.67;;;1.30;;
52029;SDS011;38043;53.224;6.580;2022-09-09T15:12:36;5.07;;;1.58;;
52029;SDS011;38043;53.224;6.580;2022-09-09T15:15:03;6.40;;;2.08;;
52029;SDS011;38043;53.224;6.580;2022-09-09T15:17:29;3.60;;;1.30;;
52029;SDS011;38043;53.224;6.580;2022-09-09T15:19:55;4.78;;;2.13;;
52029;SDS011;38043;53.224;6.580;2022-09-09T15:22:21;5.72;;;2.03;;
52029;SDS011;38043;53.224;6.580;2022-09-09T15:24:47;6.90;;;1.70;;
52029;SDS011;38043;53.224;6.580;2022-09-09T15:27:12;5.18;;;1.60;;
52029;SDS011;38043;53.224;6.580;2022-09-09T15:29:39;7.93;;;1.77;;
52029;SDS011;38043;53.224;6.580;2022-09-09T15:32:06;8.23;;;3.03;;
52029;SDS011;38043;53.224;6.580;2022-09-09T15:34:32;4.88;;;1.70;;
52029;SDS011;38043;53.224;6.580;2022-09-09T15:36:58;8.70;;;1.98;;
52029;SDS011;38043;53.224;6.580;2022-09-09T15:39:24;7.28;;;2.33;;
52029;SDS011;38043;53.224;6.580;2022-09-09T15:41:50;5.18;;;1.70;;
52029;SDS011;38043;53.224;6.580;2022-09-09T15:44:16;6.63;;;2.05;;
52029;SDS011;38043;53.224;6.580;2022-09-09T15:46:45;11.45;;;2.42;;
52029;SDS011;38043;53.224;6.580;2022-09-09T15:49:25;3.88;;;1.65;;
52029;SDS011;38043;53.224;6.580;2022-09-09T15:51:55;5.75;;;1.88;;
52029;SDS011;38043;53.224;6.580;2022-09-09T15:54:28;3.25;;;1.50;;
52029;SDS011;38043;53.224;6.580;2022-09-09T15:56:58;7.85;;;1.98;;
52029;SDS011;38043;53.224;6.580;2022-09-09T15:59:25;4.68;;;1.45;;
52029;SDS011;38043;53.224;6.580;2022-09-09T16:01:53;3.97;;;1.48;;
52029;SDS011;38043;53.224;6.580;2022-09-09T16:04:20;5.20;;;1.73;;
52029;SDS011;38043;53.224;6.580;2022-09-09T16:06:50;4.45;;;1.75;;
52029;SDS011;38043;53.224;6.580;2022-09-09T16:09:17;6.50;;;1.40;;
52029;SDS011;38043;53.224;6.580;2022-09-09T16:11:43;5.72;;;1.60;;
52029;SDS011;38043;53.224;6.580;2022-09-09T16:14:09;4.38;;;1.60;;
52029;SDS011;38043;53.224;6.580;2022-09-09T16:16:36;4.07;;;1.50;;
52029;SDS011;38043;53.224;6.580;2022-09-09T16:19:06;4.22;;;1.60;;
52029;SDS011;38043;53.224;6.580;2022-09-09T16:21:44;4.28;;;1.27;;
52029;SDS011;38043;53.224;6.580;2022-09-09T16:24:12;3.42;;;1.70;;
52029;SDS011;38043;53.224;6.580;2022-09-09T16:26:44;4.28;;;1.70;;
52029;SDS011;38043;53.224;6.580;2022-09-09T16:29:12;5.43;;;1.60;;
52029;SDS011;38043;53.224;6.580;2022-09-09T16:31:39;8.57;;;1.63;;
52029;SDS011;38043;53.224;6.580;2022-09-09T16:34:05;4.90;;;1.60;;
52029;SDS011;38043;53.224;6.580;2022-09-09T16:36:32;9.20;;;2.10;;
52029;SDS011;38043;53.224;6.580;2022-09-09T16:39:01;7.88;;;1.98;;
52029;SDS011;38043;53.224;6.580;2022-09-09T16:41:29;5.07;;;1.80;;
52029;SDS011;38043;53.224;6.580;2022-09-09T16:43:56;7.47;;;1.92;;
52029;SDS011;38043;53.224;6.580;2022-09-09T16:46:30;5.82;;;1.73;;
52029;SDS011;38043;53.224;6.580;2022-09-09T16:48:59;6.60;;;1.60;;
52029;SDS011;38043;53.224;6.580;2022-09-09T16:51:27;5.77;;;2.13;;
52029;SDS011;38043;53.224;6.580;2022-09-09T16:54:00;6.72;;;2.08;;
52029;SDS011;38043;53.224;6.580;2022-09-09T16:56:28;6.15;;;2.03;;
52029;SDS011;38043;53.224;6.580;2022-09-09T16:58:57;3.53;;;1.65;;
52029;SDS011;38043;53.224;6.580;2022-09-09T17:01:25;4.82;;;2.08;;
52029;SDS011;38043;53.224;6.580;2022-09-09T17:03:58;5.18;;;1.80;;
52029;SDS011;38043;53.224;6.580;2022-09-09T17:06:26;4.70;;;1.92;;
52029;SDS011;38043;53.224;6.580;2022-09-09T17:08:59;4.40;;;1.90;;
52029;SDS011;38043;53.224;6.580;2022-09-09T17:11:27;6.18;;;2.17;;
52029;SDS011;38043;53.224;6.580;2022-09-09T17:13:53;8.07;;;2.10;;
52029;SDS011;38043;53.224;6.580;2022-09-09T17:16:20;7.95;;;2.53;;
52029;SDS011;38043;53.224;6.580;2022-09-09T17:21:16;5.05;;;2.33;;
52029;SDS011;38043;53.224;6.580;2022-09-09T17:23:44;4.95;;;1.90;;